sensor_id;sensor_type;location;lat;lon;timestamp;temperature;humidity
8099;DHT22;4092;47.876;9.372;2024-01-15T00:00:00;-0.40;99.90
8099;DHT22;4092;47.876;9.372;2024-01-15T00:02:30;-0.40;99.90
8099;DHT22;4092;47.876;9.372;2024-01-15T00:04:57;-0.40;99.90
8099;DHT22;4092;47.876;9.372;2024-01-15T00:07:23;-0.50;99.90
8099;DHT22;4092;47.876;9.372;2024-01-15T00:09:50;-0.60;99.90
8099;DHT22;4092;47.876;9.372;2024-01-15T00:12:17;-0.60;99.90
8099;DHT22;4092;47.876;9.372;2024-01-15T00:14:44;-0.60;99.90
8099;DHT22;4092;47.876;9.372;2024-01-15T00:17:11;-0.60;99.90
8099;DHT22;4092;47.876;9.372;2024-01-15T00:19:40;-0.60;99.90
8099;DHT22;4092;47.876;9.372;2024-01-15T00:22:07;-0.70;99.90
8099;DHT22;4092;47.876;9.372;2024-01-15T00:24:34;-0.70;99.90
8099;DHT22;4092;47.876;9.372;2024-01-15T00:27:00;-0.80;99.90
8099;DHT22;4092;47.876;9.372;2024-01-15T00:29:27;-0.80;99.90
8099;DHT22;4092;47.876;9.372;2024-01-15T00:31:54;-0.80;99.90
8099;DHT22;4092;47.876;9.372;2024-01-15T00:34:21;-0.90;99.90
8099;DHT22;4092;47.876;9.372;2024-01-15T00:36:49;-0.90;99.90
8099;DHT22;4092;47.876;9.372;2024-01-15T00:39:16;-1.00;99.90
8099;DHT22;4092;47.876;9.372;2024-01-15T00:41:43;-0.90;99.90
8099;DHT22;4092;47.876;9.372;2024-01-15T00:44:10;-1.00;99.90
8099;DHT22;4092;47.876;9.372;2024-01-15T00:46:42;-1.10;99.90
8099;DHT22;4092;47.876;9.372;2024-01-15T00:49:10;-1.20;99.90
8099;DHT22;4092;47.876;9.372;2024-01-15T00:51:37;-1.30;99.90
8099;DHT22;4092;47.876;9.372;2024-01-15T00:54:06;-1.30;99.90
8099;DHT22;4092;47.876;9.372;2024-01-15T00:56:33;-1.30;99.90
8099;DHT22;4092;47.876;9.372;2024-01-15T00:59:00;-1.30;99.90
8099;DHT22;4092;47.876;9.372;2024-01-15T01:01:27;-1.40;99.90
8099;DHT22;4092;47.876;9.372;2024-01-15T01:03:55;-1.50;99.90
8099;DHT22;4092;47.876;9.372;2024-01-15T01:06:22;-1.50;99.90
8099;DHT22;4092;47.876;9.372;2024-01-15T01:08:49;-1.50;99.90
8099;DHT22;4092;47.876;9.372;2024-01-15T01:11:18;-1.60;99.90
8099;DHT22;4092;47.876;9.372;2024-01-15T01:13:45;-1.70;99.90
8099;DHT22;4092;47.876;9.372;2024-01-15T01:16:12;-1.70;99.90
8099;DHT22;4092;47.876;9.372;2024-01-15T01:18:39;-1.70;99.90
8099;DHT22;4092;47.876;9.372;2024-01-15T01:21:06;-1.70;99.90
8099;DHT22;4092;47.876;9.372;2024-01-15T01:23:33;-1.70;99.90
8099;DHT22;4092;47.876;9.372;2024-01-15T01:26:00;-1.70;99.90
8099;DHT22;4092;47.876;9.372;2024-01-15T01:28:28;-1.70;99.90
8099;DHT22;4092;47.876;9.372;2024-01-15T01:30:55;-1.80;99.90
8099;DHT22;4092;47.876;9.372;2024-01-15T01:33:22;-1.90;99.90
8099;DHT22;4092;47.876;9.372;2024-01-15T01:35:49;-1.90;99.90
8099;DHT22;4092;47.876;9.372;2024-01-15T01:38:16;-2.00;99.90
8099;DHT22;4092;47.876;9.372;2024-01-15T01:40:43;-2.10;99.90
8099;DHT22;4092;47.876;9.372;2024-01-15T01:43:10;-2.10;99.90
8099;DHT22;4092;47.876;9.372;2024-01-15T01:45:39;-2.20;99.90
8099;DHT22;4092;47.876;9.372;2024-01-15T01:48:06;-2.40;99.90
8099;DHT22;4092;47.876;9.372;2024-01-15T01:50:34;-2.50;99.90
8099;DHT22;4092;47.876;9.372;2024-01-15T01:53:01;-2.60;99.90
8099;DHT22;4092;47.876;9.372;2024-01-15T01:55:31;-2.70;99.90
8099;DHT22;4092;47.876;9.372;2024-01-15T01:57:59;-2.70;99.90
8099;DHT22;4092;47.876;9.372;2024-01-15T02:00:27;-2.70;99.90
8099;DHT22;4092;47.876;9.372;2024-01-15T02:02:56;-2.70;99.90
8099;DHT22;4092;47.876;9.372;2024-01-15T02:05:23;-2.70;99.90
8099;DHT22;4092;47.876;9.372;2024-01-15T02:07:50;-2.60;99.90
8099;DHT22;4092;47.876;9.372;2024-01-15T02:10:17;-2.60;99.90
8099;DHT22;4092;47.876;9.372;2024-01-15T02:12:44;-2.70;99.90
8099;DHT22;4092;47.876;9.372;2024-01-15T02:15:14;-2.70;99.90
8099;DHT22;4092;47.876;9.372;2024-01-15T02:18:02;-2.70;99.90
8099;DHT22;4092;47.876;9.372;2024-01-15T02:20:29;-2.60;99.90
8099;DHT22;4092;47.876;9.372;2024-01-15T02:23:15;-2.60;99.90
8099;DHT22;4092;47.876;9.372;2024-01-15T02:25:43;-2.50;99.90
8099;DHT22;4092;47.876;9.372;2024-01-15T02:28:11;-2.50;99.90
8099;DHT22;4092;47.876;9.372;2024-01-15T02:30:40;-2.40;99.90
8099;DHT22;4092;47.876;9.372;2024-01-15T02:33:09;-2.40;99.90
8099;DHT22;4092;47.876;9.372;2024-01-15T02:35:37;-2.40;99.90
8099;DHT22;4092;47.876;9.372;2024-01-15T02:38:04;-2.50;99.90
8099;DHT22;4092;47.876;9.372;2024-01-15T02:40:33;-2.40;99.90
8099;DHT22;4092;47.876;9.372;2024-01-15T02:43:00;-2.40;99.90
8099;DHT22;4092;47.876;9.372;2024-01-15T02:45:27;-2.40;99.90
8099;DHT22;4092;47.876;9.372;2024-01-15T02:47:54;-2.50;99.90
8099;DHT22;4092;47.876;9.372;2024-01-15T02:50:21;-2.40;99.90
8099;DHT22;4092;47.876;9.372;2024-01-15T02:52:48;-2.50;99.90
8099;DHT22;4092;47.876;9.372;2024-01-15T02:55:16;-2.50;99.90
8099;DHT22;4092;47.876;9.372;2024-01-15T02:57:44;-2.50;99.90
8099;DHT22;4092;47.876;9.372;2024-01-15T03:00:12;-2.50;99.90
8099;DHT22;4092;47.876;9.372;2024-01-15T03:02:39;-2.50;99.90
8099;DHT22;4092;47.876;9.372;2024-01-15T03:05:09;-2.50;99.90
8099;DHT22;4092;47.876;9.372;2024-01-15T03:07:36;-2.50;99.90
8099;DHT22;4092;47.876;9.372;2024-01-15T03:10:05;-2.50;99.90
8099;DHT22;4092;47.876;9.372;2024-01-15T03:12:32;-2.60;99.90
8099;DHT22;4092;47.876;9.372;2024-01-15T03:15:01;-2.60;99.90
8099;DHT22;4092;47.876;9.372;2024-01-15T03:17:28;-2.60;99.90
8099;DHT22;4092;47.876;9.372;2024-01-15T03:19:55;-2.70;99.90
8099;DHT22;4092;47.876;9.372;2024-01-15T03:22:22;-2.60;99.90
8099;DHT22;4092;47.876;9.372;2024-01-15T03:24:50;-2.60;99.90
8099;DHT22;4092;47.876;9.372;2024-01-15T03:27:17;-2.60;99.90
8099;DHT22;4092;47.876;9.372;2024-01-15T03:29:44;-2.60;99.90
8099;DHT22;4092;47.876;9.372;2024-01-15T03:32:12;-2.60;99.90
8099;DHT22;4092;47.876;9.372;2024-01-15T03:34:39;-2.60;99.90
8099;DHT22;4092;47.876;9.372;2024-01-15T03:37:06;-2.60;99.90
8099;DHT22;4092;47.876;9.372;2024-01-15T03:39:34;-2.70;99.90
8099;DHT22;4092;47.876;9.372;2024-01-15T03:42:01;-2.70;99.90
8099;DHT22;4092;47.876;9.372;2024-01-15T03:44:28;-2.70;99.90
8099;DHT22;4092;47.876;9.372;2024-01-15T03:46:55;-2.70;99.90
8099;DHT22;4092;47.876;9.372;2024-01-15T03:49:25;-2.70;99.90
8099;DHT22;4092;47.876;9.372;2024-01-15T03:51:52;-2.70;99.90
8099;DHT22;4092;47.876;9.372;2024-01-15T03:54:19;-2.70;99.90
8099;DHT22;4092;47.876;9.372;2024-01-15T03:56:46;-2.70;99.90
8099;DHT22;4092;47.876;9.372;2024-01-15T03:59:13;-2.70;99.90
8099;DHT22;4092;47.876;9.372;2024-01-15T04:01:40;-2.70;99.90
8099;DHT22;4092;47.876;9.372;2024-01-15T04:04:07;-2.60;99.90
8099;DHT22;4092;47.876;9.372;2024-01-15T04:06:35;-2.60;99.90
8099;DHT22;4092;47.876;9.372;2024-01-15T04:09:02;-2.60;99.90
8099;DHT22;4092;47.876;9.372;2024-01-15T04:11:29;-2.50;99.90
8099;DHT22;4092;47.876;9.372;2024-01-15T04:13:57;-2.50;99.90
8099;DHT22;4092;47.876;9.372;2024-01-15T04:16:24;-2.50;99.90
8099;DHT22;4092;47.876;9.372;2024-01-15T04:18:51;-2.50;99.90
8099;DHT22;4092;47.876;9.372;2024-01-15T04:21:18;-2.50;99.90
8099;DHT22;4092;47.876;9.372;2024-01-15T04:23:46;-2.50;99.90
8099;DHT22;4092;47.876;9.372;2024-01-15T04:26:13;-2.50;99.90
8099;DHT22;4092;47.876;9.372;2024-01-15T04:28:40;-2.40;99.90
8099;DHT22;4092;47.876;9.372;2024-01-15T04:31:07;-2.40;99.90
8099;DHT22;4092;47.876;9.372;2024-01-15T04:33:34;-2.40;99.90
8099;DHT22;4092;47.876;9.372;2024-01-15T04:36:02;-2.40;99.90
8099;DHT22;4092;47.876;9.372;2024-01-15T04:38:29;-2.30;99.90
8099;DHT22;4092;47.876;9.372;2024-01-15T04:40:59;-2.30;99.90
8099;DHT22;4092;47.876;9.372;2024-01-15T04:43:26;-2.30;99.90
8099;DHT22;4092;47.876;9.372;2024-01-15T04:45:54;-2.30;99.90
8099;DHT22;4092;47.876;9.372;2024-01-15T04:48:21;-2.20;99.90
8099;DHT22;4092;47.876;9.372;2024-01-15T04:50:48;-2.30;99.90
8099;DHT22;4092;47.876;9.372;2024-01-15T04:53:16;-2.30;99.90
8099;DHT22;4092;47.876;9.372;2024-01-15T04:55:43;-2.20;99.90
8099;DHT22;4092;47.876;9.372;2024-01-15T04:58:11;-2.30;99.90
8099;DHT22;4092;47.876;9.372;2024-01-15T05:00:38;-2.20;99.90
8099;DHT22;4092;47.876;9.372;2024-01-15T05:03:05;-2.20;99.90
8099;DHT22;4092;47.876;9.372;2024-01-15T05:05:32;-2.20;99.90
8099;DHT22;4092;47.876;9.372;2024-01-15T05:07:59;-2.20;99.90
8099;DHT22;4092;47.876;9.372;2024-01-15T05:10:27;-2.20;99.90
8099;DHT22;4092;47.876;9.372;2024-01-15T05:12:54;-2.20;99.90
8099;DHT22;4092;47.876;9.372;2024-01-15T05:15:22;-2.20;99.90
8099;DHT22;4092;47.876;9.372;2024-01-15T05:17:49;-2.20;99.90
8099;DHT22;4092;47.876;9.372;2024-01-15T05:20:16;-2.10;99.90
8099;DHT22;4092;47.876;9.372;2024-01-15T05:22:43;-2.10;99.90
8099;DHT22;4092;47.876;9.372;2024-01-15T05:25:10;-2.10;99.90
8099;DHT22;4092;47.876;9.372;2024-01-15T05:27:37;-2.10;99.90
8099;DHT22;4092;47.876;9.372;2024-01-15T05:30:07;-2.10;99.90
8099;DHT22;4092;47.876;9.372;2024-01-15T05:32:37;-2.10;99.90
8099;DHT22;4092;47.876;9.372;2024-01-15T05:35:04;-2.20;99.90
8099;DHT22;4092;47.876;9.372;2024-01-15T05:37:31;-2.20;99.90
8099;DHT22;4092;47.876;9.372;2024-01-15T05:39:58;-2.30;99.90
8099;DHT22;4092;47.876;9.372;2024-01-15T05:42:26;-2.30;99.90
8099;DHT22;4092;47.876;9.372;2024-01-15T05:44:57;-2.30;99.90
8099;DHT22;4092;47.876;9.372;2024-01-15T05:47:25;-2.20;99.90
8099;DHT22;4092;47.876;9.372;2024-01-15T05:49:54;-2.30;99.90
8099;DHT22;4092;47.876;9.372;2024-01-15T05:52:23;-2.30;99.90
8099;DHT22;4092;47.876;9.372;2024-01-15T05:54:51;-2.20;99.90
8099;DHT22;4092;47.876;9.372;2024-01-15T05:57:18;-2.20;99.90
8099;DHT22;4092;47.876;9.372;2024-01-15T05:59:45;-2.20;99.90
8099;DHT22;4092;47.876;9.372;2024-01-15T06:02:13;-2.10;99.90
8099;DHT22;4092;47.876;9.372;2024-01-15T06:04:40;-2.10;99.90
8099;DHT22;4092;47.876;9.372;2024-01-15T06:07:11;-2.20;99.90
8099;DHT22;4092;47.876;9.372;2024-01-15T06:09:38;-2.10;99.90
8099;DHT22;4092;47.876;9.372;2024-01-15T06:12:07;-2.20;99.90
8099;DHT22;4092;47.876;9.372;2024-01-15T06:14:36;-2.20;99.90
8099;DHT22;4092;47.876;9.372;2024-01-15T06:17:04;-2.20;99.90
8099;DHT22;4092;47.876;9.372;2024-01-15T06:19:31;-2.20;99.90
8099;DHT22;4092;47.876;9.372;2024-01-15T06:21:58;-2.20;99.90
8099;DHT22;4092;47.876;9.372;2024-01-15T06:24:26;-2.10;99.90
8099;DHT22;4092;47.876;9.372;2024-01-15T06:26:54;-2.00;99.90
8099;DHT22;4092;47.876;9.372;2024-01-15T06:29:21;-1.90;99.90
8099;DHT22;4092;47.876;9.372;2024-01-15T06:31:50;-1.90;99.90
8099;DHT22;4092;47.876;9.372;2024-01-15T06:34:20;-1.90;99.90
8099;DHT22;4092;47.876;9.372;2024-01-15T06:36:49;-1.90;99.90
8099;DHT22;4092;47.876;9.372;2024-01-15T06:39:16;-1.90;99.90
8099;DHT22;4092;47.876;9.372;2024-01-15T06:41:47;-1.90;99.90
8099;DHT22;4092;47.876;9.372;2024-01-15T06:44:14;-1.80;99.90
8099;DHT22;4092;47.876;9.372;2024-01-15T06:46:44;-1.80;99.90
8099;DHT22;4092;47.876;9.372;2024-01-15T06:49:13;-1.80;99.90
8099;DHT22;4092;47.876;9.372;2024-01-15T06:51:40;-1.80;99.90
8099;DHT22;4092;47.876;9.372;2024-01-15T06:54:07;-1.70;99.90
8099;DHT22;4092;47.876;9.372;2024-01-15T06:56:39;-1.70;99.90
8099;DHT22;4092;47.876;9.372;2024-01-15T06:59:07;-1.70;99.90
8099;DHT22;4092;47.876;9.372;2024-01-15T07:01:34;-1.70;99.90
8099;DHT22;4092;47.876;9.372;2024-01-15T07:04:01;-1.80;99.90
8099;DHT22;4092;47.876;9.372;2024-01-15T07:06:29;-1.80;99.90
8099;DHT22;4092;47.876;9.372;2024-01-15T07:08:59;-1.80;99.90
8099;DHT22;4092;47.876;9.372;2024-01-15T07:11:26;-1.70;99.90
8099;DHT22;4092;47.876;9.372;2024-01-15T07:13:53;-1.70;99.90
8099;DHT22;4092;47.876;9.372;2024-01-15T07:16:21;-1.70;99.90
8099;DHT22;4092;47.876;9.372;2024-01-15T07:18:49;-1.80;99.90
8099;DHT22;4092;47.876;9.372;2024-01-15T07:21:17;-1.80;99.90
8099;DHT22;4092;47.876;9.372;2024-01-15T07:23:45;-1.80;99.90
8099;DHT22;4092;47.876;9.372;2024-01-15T07:26:13;-1.80;99.90
8099;DHT22;4092;47.876;9.372;2024-01-15T07:28:40;-1.80;99.90
8099;DHT22;4092;47.876;9.372;2024-01-15T07:31:08;-1.70;99.90
8099;DHT22;4092;47.876;9.372;2024-01-15T07:33:37;-1.80;99.90
8099;DHT22;4092;47.876;9.372;2024-01-15T07:36:05;-1.80;99.90
8099;DHT22;4092;47.876;9.372;2024-01-15T07:38:33;-1.80;99.90
8099;DHT22;4092;47.876;9.372;2024-01-15T07:41:01;-1.80;99.90
8099;DHT22;4092;47.876;9.372;2024-01-15T07:43:28;-1.80;99.90
8099;DHT22;4092;47.876;9.372;2024-01-15T07:45:56;-1.70;99.90
8099;DHT22;4092;47.876;9.372;2024-01-15T07:48:24;-1.80;99.90
8099;DHT22;4092;47.876;9.372;2024-01-15T07:50:52;-1.80;99.90
8099;DHT22;4092;47.876;9.372;2024-01-15T07:53:19;-1.80;99.90
8099;DHT22;4092;47.876;9.372;2024-01-15T07:55:46;-1.80;99.90
8099;DHT22;4092;47.876;9.372;2024-01-15T07:58:13;-1.70;99.90
8099;DHT22;4092;47.876;9.372;2024-01-15T08:00:41;-1.80;99.90
8099;DHT22;4092;47.876;9.372;2024-01-15T08:03:07;-1.80;99.90
8099;DHT22;4092;47.876;9.372;2024-01-15T08:05:34;-1.80;99.90
8099;DHT22;4092;47.876;9.372;2024-01-15T08:08:04;-1.80;99.90
8099;DHT22;4092;47.876;9.372;2024-01-15T08:10:32;-1.80;99.90
8099;DHT22;4092;47.876;9.372;2024-01-15T08:12:59;-1.80;99.90
8099;DHT22;4092;47.876;9.372;2024-01-15T08:15:28;-1.80;99.90
8099;DHT22;4092;47.876;9.372;2024-01-15T08:17:55;-1.80;99.90
8099;DHT22;4092;47.876;9.372;2024-01-15T08:20:22;-1.60;99.90
8099;DHT22;4092;47.876;9.372;2024-01-15T08:22:49;-1.60;99.90
8099;DHT22;4092;47.876;9.372;2024-01-15T08:25:18;-1.50;99.90
8099;DHT22;4092;47.876;9.372;2024-01-15T08:27:45;-1.40;99.90
8099;DHT22;4092;47.876;9.372;2024-01-15T08:30:12;-1.50;99.90
8099;DHT22;4092;47.876;9.372;2024-01-15T08:32:39;-1.40;99.90
8099;DHT22;4092;47.876;9.372;2024-01-15T08:35:08;-1.50;99.90
8099;DHT22;4092;47.876;9.372;2024-01-15T08:37:35;-1.50;99.90
8099;DHT22;4092;47.876;9.372;2024-01-15T08:40:03;-1.50;99.90
8099;DHT22;4092;47.876;9.372;2024-01-15T08:42:31;-1.50;99.90
8099;DHT22;4092;47.876;9.372;2024-01-15T08:44:58;-1.40;99.90
8099;DHT22;4092;47.876;9.372;2024-01-15T08:47:27;-1.40;99.90
8099;DHT22;4092;47.876;9.372;2024-01-15T08:49:54;-1.50;99.90
8099;DHT22;4092;47.876;9.372;2024-01-15T08:52:21;-1.50;99.90
8099;DHT22;4092;47.876;9.372;2024-01-15T08:54:48;-1.50;99.90
8099;DHT22;4092;47.876;9.372;2024-01-15T08:57:16;-1.50;99.90
8099;DHT22;4092;47.876;9.372;2024-01-15T08:59:44;-1.50;99.90
8099;DHT22;4092;47.876;9.372;2024-01-15T09:02:11;-1.50;99.90
8099;DHT22;4092;47.876;9.372;2024-01-15T09:04:38;-1.50;99.90
8099;DHT22;4092;47.876;9.372;2024-01-15T09:07:06;-1.50;99.90
8099;DHT22;4092;47.876;9.372;2024-01-15T09:09:34;-1.60;99.90
8099;DHT22;4092;47.876;9.372;2024-01-15T09:12:02;-1.60;99.90
8099;DHT22;4092;47.876;9.372;2024-01-15T09:14:30;-1.50;99.90
8099;DHT22;4092;47.876;9.372;2024-01-15T09:17:01;-1.50;99.90
8099;DHT22;4092;47.876;9.372;2024-01-15T09:19:29;-1.40;99.90
8099;DHT22;4092;47.876;9.372;2024-01-15T09:21:56;-1.40;99.90
8099;DHT22;4092;47.876;9.372;2024-01-15T09:24:23;-1.30;99.90
8099;DHT22;4092;47.876;9.372;2024-01-15T09:26:50;-1.30;99.90
8099;DHT22;4092;47.876;9.372;2024-01-15T09:29:17;-1.20;99.90
8099;DHT22;4092;47.876;9.372;2024-01-15T09:31:44;-1.20;99.90
8099;DHT22;4092;47.876;9.372;2024-01-15T09:34:12;-1.20;99.90
8099;DHT22;4092;47.876;9.372;2024-01-15T09:36:40;-1.10;99.90
8099;DHT22;4092;47.876;9.372;2024-01-15T09:39:07;-1.10;99.90
8099;DHT22;4092;47.876;9.372;2024-01-15T09:41:36;-1.20;99.90
8099;DHT22;4092;47.876;9.372;2024-01-15T09:44:04;-1.20;99.90
8099;DHT22;4092;47.876;9.372;2024-01-15T09:46:31;-1.30;99.90
8099;DHT22;4092;47.876;9.372;2024-01-15T09:48:59;-1.30;99.90
8099;DHT22;4092;47.876;9.372;2024-01-15T09:51:31;-1.20;99.90
8099;DHT22;4092;47.876;9.372;2024-01-15T09:53:58;-1.10;99.90
8099;DHT22;4092;47.876;9.372;2024-01-15T09:56:25;-1.00;99.90
8099;DHT22;4092;47.876;9.372;2024-01-15T09:58:53;-0.90;99.90
8099;DHT22;4092;47.876;9.372;2024-01-15T10:01:20;-0.80;99.90
8099;DHT22;4092;47.876;9.372;2024-01-15T10:03:47;-0.70;99.90
8099;DHT22;4092;47.876;9.372;2024-01-15T10:06:16;-0.60;99.90
8099;DHT22;4092;47.876;9.372;2024-01-15T10:08:48;-0.50;99.90
8099;DHT22;4092;47.876;9.372;2024-01-15T10:11:15;-0.40;99.90
8099;DHT22;4092;47.876;9.372;2024-01-15T10:13:43;-0.30;99.90
8099;DHT22;4092;47.876;9.372;2024-01-15T10:16:11;-0.30;99.90
8099;DHT22;4092;47.876;9.372;2024-01-15T10:18:38;-0.30;99.90
8099;DHT22;4092;47.876;9.372;2024-01-15T10:21:07;-0.30;99.90
8099;DHT22;4092;47.876;9.372;2024-01-15T10:23:34;-0.20;99.90
8099;DHT22;4092;47.876;9.372;2024-01-15T10:26:03;-0.10;99.90
8099;DHT22;4092;47.876;9.372;2024-01-15T10:28:30;0.00;99.90
8099;DHT22;4092;47.876;9.372;2024-01-15T10:31:00;0.00;99.90
8099;DHT22;4092;47.876;9.372;2024-01-15T10:33:27;0.00;99.90
8099;DHT22;4092;47.876;9.372;2024-01-15T10:35:55;-0.10;99.90
8099;DHT22;4092;47.876;9.372;2024-01-15T10:38:23;-0.20;99.90
8099;DHT22;4092;47.876;9.372;2024-01-15T10:40:51;-0.20;99.90
8099;DHT22;4092;47.876;9.372;2024-01-15T10:43:20;-0.30;99.90
8099;DHT22;4092;47.876;9.372;2024-01-15T10:45:48;-0.40;99.90
8099;DHT22;4092;47.876;9.372;2024-01-15T10:48:17;-0.40;99.90
8099;DHT22;4092;47.876;9.372;2024-01-15T10:50:46;-0.50;99.90
8099;DHT22;4092;47.876;9.372;2024-01-15T10:53:14;-0.50;99.90
8099;DHT22;4092;47.876;9.372;2024-01-15T10:55:42;-0.50;99.90
8099;DHT22;4092;47.876;9.372;2024-01-15T10:58:10;-0.40;99.90
8099;DHT22;4092;47.876;9.372;2024-01-15T11:00:38;-0.20;99.90
8099;DHT22;4092;47.876;9.372;2024-01-15T11:03:06;-0.10;99.90
8099;DHT22;4092;47.876;9.372;2024-01-15T11:05:34;0.00;99.90
8099;DHT22;4092;47.876;9.372;2024-01-15T11:08:05;0.00;99.90
8099;DHT22;4092;47.876;9.372;2024-01-15T11:10:39;0.10;99.90
8099;DHT22;4092;47.876;9.372;2024-01-15T11:13:08;0.10;99.90
8099;DHT22;4092;47.876;9.372;2024-01-15T11:16:01;0.20;99.90
8099;DHT22;4092;47.876;9.372;2024-01-15T11:18:30;0.40;99.90
8099;DHT22;4092;47.876;9.372;2024-01-15T11:21:24;0.30;99.90
8099;DHT22;4092;47.876;9.372;2024-01-15T11:23:53;0.20;99.90
8099;DHT22;4092;47.876;9.372;2024-01-15T11:26:30;0.10;99.90
8099;DHT22;4092;47.876;9.372;2024-01-15T11:28:58;0.20;99.90
8099;DHT22;4092;47.876;9.372;2024-01-15T11:31:57;0.30;99.90
8099;DHT22;4092;47.876;9.372;2024-01-15T11:37:24;0.60;99.90
8099;DHT22;4092;47.876;9.372;2024-01-15T11:39:52;0.80;99.90
8099;DHT22;4092;47.876;9.372;2024-01-15T11:42:20;0.90;99.90
8099;DHT22;4092;47.876;9.372;2024-01-15T11:44:49;1.00;99.90
8099;DHT22;4092;47.876;9.372;2024-01-15T11:50:08;1.20;99.90
8099;DHT22;4092;47.876;9.372;2024-01-15T11:52:38;1.40;99.90
8099;DHT22;4092;47.876;9.372;2024-01-15T11:55:11;1.50;99.90
8099;DHT22;4092;47.876;9.372;2024-01-15T11:57:45;1.70;99.90
8099;DHT22;4092;47.876;9.372;2024-01-15T12:00:13;1.90;99.90
8099;DHT22;4092;47.876;9.372;2024-01-15T12:02:43;2.10;99.90
8099;DHT22;4092;47.876;9.372;2024-01-15T12:05:12;2.20;99.90
8099;DHT22;4092;47.876;9.372;2024-01-15T12:07:39;2.00;99.90
8099;DHT22;4092;47.876;9.372;2024-01-15T12:10:10;1.80;99.90
8099;DHT22;4092;47.876;9.372;2024-01-15T12:12:57;1.50;99.90
8099;DHT22;4092;47.876;9.372;2024-01-15T12:15:27;1.00;99.90
8099;DHT22;4092;47.876;9.372;2024-01-15T12:17:57;0.90;99.90
8099;DHT22;4092;47.876;9.372;2024-01-15T12:20:25;0.90;99.90
8099;DHT22;4092;47.876;9.372;2024-01-15T12:22:52;1.00;99.90
8099;DHT22;4092;47.876;9.372;2024-01-15T12:25:20;1.10;99.90
8099;DHT22;4092;47.876;9.372;2024-01-15T12:27:48;1.20;99.90
8099;DHT22;4092;47.876;9.372;2024-01-15T12:30:15;1.40;99.90
8099;DHT22;4092;47.876;9.372;2024-01-15T12:32:43;1.50;99.90
8099;DHT22;4092;47.876;9.372;2024-01-15T12:35:11;1.50;99.90
8099;DHT22;4092;47.876;9.372;2024-01-15T12:37:39;1.50;99.90
8099;DHT22;4092;47.876;9.372;2024-01-15T12:40:08;1.50;99.90
8099;DHT22;4092;47.876;9.372;2024-01-15T12:42:35;1.50;99.90
8099;DHT22;4092;47.876;9.372;2024-01-15T12:45:03;1.20;99.90
8099;DHT22;4092;47.876;9.372;2024-01-15T12:47:31;1.20;99.90
8099;DHT22;4092;47.876;9.372;2024-01-15T12:49:59;1.20;99.90
8099;DHT22;4092;47.876;9.372;2024-01-15T12:52:29;1.10;99.90
8099;DHT22;4092;47.876;9.372;2024-01-15T12:54:56;1.00;99.90
8099;DHT22;4092;47.876;9.372;2024-01-15T12:57:22;1.10;99.90
8099;DHT22;4092;47.876;9.372;2024-01-15T12:59:49;1.00;99.90
8099;DHT22;4092;47.876;9.372;2024-01-15T13:02:17;1.00;99.90
8099;DHT22;4092;47.876;9.372;2024-01-15T13:04:44;0.90;99.90
8099;DHT22;4092;47.876;9.372;2024-01-15T13:07:11;0.80;99.90
8099;DHT22;4092;47.876;9.372;2024-01-15T13:09:40;0.80;99.90
8099;DHT22;4092;47.876;9.372;2024-01-15T13:12:07;0.70;99.90
8099;DHT22;4092;47.876;9.372;2024-01-15T13:14:34;0.80;99.90
8099;DHT22;4092;47.876;9.372;2024-01-15T13:17:02;0.80;99.90
8099;DHT22;4092;47.876;9.372;2024-01-15T13:19:29;0.80;99.90
8099;DHT22;4092;47.876;9.372;2024-01-15T13:21:58;0.70;99.90
8099;DHT22;4092;47.876;9.372;2024-01-15T13:24:25;0.70;99.90
8099;DHT22;4092;47.876;9.372;2024-01-15T13:26:54;0.70;99.90
8099;DHT22;4092;47.876;9.372;2024-01-15T13:29:22;0.70;99.90
8099;DHT22;4092;47.876;9.372;2024-01-15T13:31:49;0.70;99.90
8099;DHT22;4092;47.876;9.372;2024-01-15T13:34:16;0.70;99.90
8099;DHT22;4092;47.876;9.372;2024-01-15T13:36:43;0.70;99.90
8099;DHT22;4092;47.876;9.372;2024-01-15T13:39:10;0.80;99.90
8099;DHT22;4092;47.876;9.372;2024-01-15T13:41:37;0.80;99.90
8099;DHT22;4092;47.876;9.372;2024-01-15T13:44:06;0.80;99.90
8099;DHT22;4092;47.876;9.372;2024-01-15T13:46:34;0.70;99.90
8099;DHT22;4092;47.876;9.372;2024-01-15T13:49:01;0.70;99.90
8099;DHT22;4092;47.876;9.372;2024-01-15T13:51:30;0.70;99.90
8099;DHT22;4092;47.876;9.372;2024-01-15T13:53:57;0.60;99.90
8099;DHT22;4092;47.876;9.372;2024-01-15T13:56:24;0.50;99.90
8099;DHT22;4092;47.876;9.372;2024-01-15T13:58:56;0.50;99.90
8099;DHT22;4092;47.876;9.372;2024-01-15T14:01:25;0.50;99.90
8099;DHT22;4092;47.876;9.372;2024-01-15T14:03:53;0.50;99.90
8099;DHT22;4092;47.876;9.372;2024-01-15T14:06:19;0.50;99.90
8099;DHT22;4092;47.876;9.372;2024-01-15T14:08:47;0.40;99.90
8099;DHT22;4092;47.876;9.372;2024-01-15T14:11:14;0.40;99.90
8099;DHT22;4092;47.876;9.372;2024-01-15T14:13:41;0.40;99.90
8099;DHT22;4092;47.876;9.372;2024-01-15T14:16:08;0.40;99.90
8099;DHT22;4092;47.876;9.372;2024-01-15T14:18:36;0.30;99.90
8099;DHT22;4092;47.876;9.372;2024-01-15T14:21:04;0.40;99.90
8099;DHT22;4092;47.876;9.372;2024-01-15T14:23:31;0.40;99.90
8099;DHT22;4092;47.876;9.372;2024-01-15T14:25:58;0.30;99.90
8099;DHT22;4092;47.876;9.372;2024-01-15T14:28:25;0.30;99.90
8099;DHT22;4092;47.876;9.372;2024-01-15T14:30:52;0.20;99.90
8099;DHT22;4092;47.876;9.372;2024-01-15T14:33:19;0.20;99.90
8099;DHT22;4092;47.876;9.372;2024-01-15T14:35:48;0.20;99.90
8099;DHT22;4092;47.876;9.372;2024-01-15T14:38:14;0.10;99.90
8099;DHT22;4092;47.876;9.372;2024-01-15T14:40:41;0.20;99.90
8099;DHT22;4092;47.876;9.372;2024-01-15T14:43:09;0.20;99.90
8099;DHT22;4092;47.876;9.372;2024-01-15T14:45:37;0.20;99.90
8099;DHT22;4092;47.876;9.372;2024-01-15T14:48:04;0.10;99.90
8099;DHT22;4092;47.876;9.372;2024-01-15T14:50:31;0.10;99.90
8099;DHT22;4092;47.876;9.372;2024-01-15T14:53:00;0.00;99.90
8099;DHT22;4092;47.876;9.372;2024-01-15T14:55:27;0.00;99.90
8099;DHT22;4092;47.876;9.372;2024-01-15T14:57:54;0.00;99.90
8099;DHT22;4092;47.876;9.372;2024-01-15T15:00:21;0.00;99.90
8099;DHT22;4092;47.876;9.372;2024-01-15T15:02:48;0.00;99.90
8099;DHT22;4092;47.876;9.372;2024-01-15T15:05:15;0.00;99.90
8099;DHT22;4092;47.876;9.372;2024-01-15T15:07:42;0.00;99.90
8099;DHT22;4092;47.876;9.372;2024-01-15T15:10:11;0.00;99.90
8099;DHT22;4092;47.876;9.372;2024-01-15T15:12:38;0.00;99.90
8099;DHT22;4092;47.876;9.372;2024-01-15T15:15:06;0.00;99.90
8099;DHT22;4092;47.876;9.372;2024-01-15T15:17:33;0.00;99.90
8099;DHT22;4092;47.876;9.372;2024-01-15T15:20:01;0.00;99.90
8099;DHT22;4092;47.876;9.372;2024-01-15T15:22:29;0.00;99.90
8099;DHT22;4092;47.876;9.372;2024-01-15T15:24:56;0.00;99.90
8099;DHT22;4092;47.876;9.372;2024-01-15T15:27:24;0.00;99.90
8099;DHT22;4092;47.876;9.372;2024-01-15T15:29:53;0.00;99.90
8099;DHT22;4092;47.876;9.372;2024-01-15T15:32:19;0.00;99.90
8099;DHT22;4092;47.876;9.372;2024-01-15T15:34:47;0.00;99.90
8099;DHT22;4092;47.876;9.372;2024-01-15T15:37:14;0.00;99.90
8099;DHT22;4092;47.876;9.372;2024-01-15T15:39:42;-0.10;99.90
8099;DHT22;4092;47.876;9.372;2024-01-15T15:42:10;-0.10;99.90
8099;DHT22;4092;47.876;9.372;2024-01-15T15:44:40;-0.20;99.90
8099;DHT22;4092;47.876;9.372;2024-01-15T15:47:12;-0.30;99.90
8099;DHT22;4092;47.876;9.372;2024-01-15T15:49:39;-0.30;99.90
8099;DHT22;4092;47.876;9.372;2024-01-15T15:52:06;-0.20;99.90
8099;DHT22;4092;47.876;9.372;2024-01-15T15:54:34;-0.30;99.90
8099;DHT22;4092;47.876;9.372;2024-01-15T15:57:01;-0.30;99.90
8099;DHT22;4092;47.876;9.372;2024-01-15T15:59:29;-0.30;99.90
8099;DHT22;4092;47.876;9.372;2024-01-15T16:01:57;-0.30;99.90
8099;DHT22;4092;47.876;9.372;2024-01-15T16:04:24;-0.40;99.90
8099;DHT22;4092;47.876;9.372;2024-01-15T16:06:51;-0.40;99.90
8099;DHT22;4092;47.876;9.372;2024-01-15T16:09:19;-0.40;99.90
8099;DHT22;4092;47.876;9.372;2024-01-15T16:11:47;-0.40;99.90
8099;DHT22;4092;47.876;9.372;2024-01-15T16:14:14;-0.50;99.90
8099;DHT22;4092;47.876;9.372;2024-01-15T16:16:43;-0.50;99.90